Map

Track Data

SID SEASON NUMBER BASIN SUBBASIN NAME ISO_TIME NATURE LAT LON WMO_WIND WMO_PRES WMO_AGENCY TRACK_TYPE DIST2LAND LANDFALL IFLAG USA_AGENCY USA_ATCF_ID USA_LAT USA_LON USA_RECORD USA_STATUS USA_WIND USA_PRES USA_SSHS USA_R34_NE USA_R34_SE USA_R34_SW USA_R34_NW USA_R50_NE USA_R50_SE USA_R50_SW USA_R50_NW USA_R64_NE USA_R64_SE USA_R64_SW USA_R64_NW USA_POCI USA_ROCI USA_RMW USA_EYE TOKYO_LAT TOKYO_LON TOKYO_GRADE TOKYO_WIND TOKYO_PRES TOKYO_R50_DIR TOKYO_R50_LONG TOKYO_R50_SHORT TOKYO_R30_DIR TOKYO_R30_LONG TOKYO_R30_SHORT TOKYO_LAND CMA_LAT CMA_LON CMA_CAT CMA_WIND CMA_PRES HKO_LAT HKO_LON HKO_CAT HKO_WIND HKO_PRES NEWDELHI_LAT NEWDELHI_LON NEWDELHI_GRADE NEWDELHI_WIND NEWDELHI_PRES NEWDELHI_CI NEWDELHI_DP NEWDELHI_POCI REUNION_LAT REUNION_LON REUNION_TYPE REUNION_WIND REUNION_PRES REUNION_TNUM REUNION_CI REUNION_RMW REUNION_R34_NE REUNION_R34_SE REUNION_R34_SW REUNION_R34_NW REUNION_R50_NE REUNION_R50_SE REUNION_R50_SW REUNION_R50_NW REUNION_R64_NE REUNION_R64_SE REUNION_R64_SW REUNION_R64_NW BOM_LAT BOM_LON BOM_TYPE BOM_WIND BOM_PRES BOM_TNUM BOM_CI BOM_RMW BOM_R34_NE BOM_R34_SE BOM_R34_SW BOM_R34_NW BOM_R50_NE BOM_R50_SE BOM_R50_SW BOM_R50_NW BOM_R64_NE BOM_R64_SE BOM_R64_SW BOM_R64_NW BOM_ROCI BOM_POCI BOM_EYE BOM_POS_METHOD BOM_PRES_METHOD NADI_LAT NADI_LON NADI_CAT NADI_WIND NADI_PRES WELLINGTON_LAT WELLINGTON_LON WELLINGTON_WIND WELLINGTON_PRES DS824_LAT DS824_LON DS824_STAGE DS824_WIND DS824_PRES TD9636_LAT TD9636_LON TD9636_STAGE TD9636_WIND TD9636_PRES TD9635_LAT TD9635_LON TD9635_WIND TD9635_PRES TD9635_ROCI NEUMANN_LAT NEUMANN_LON NEUMANN_CLASS NEUMANN_WIND NEUMANN_PRES MLC_LAT MLC_LON MLC_CLASS MLC_WIND MLC_PRES USA_GUST BOM_GUST BOM_GUST_PER REUNION_GUST REUNION_GUST_PER USA_SEAHGT USA_SEARAD_NE USA_SEARAD_SE USA_SEARAD_SW USA_SEARAD_NW STORM_SPEED STORM_DIR
1931355S06101 1932 62 SI WA NOT_NAMED 1931-12-20 18:00:00 NR -5.70000 101.300 main 220 220 __________O___ -1 -5.70000 101.300 7 2 0
1931355S06101 1932 62 SI WA NOT_NAMED 1931-12-20 21:00:00 NR -5.81249 101.298 main 228 228 __________P___ -1 -5.81249 101.298 7 2 184
1931355S06101 1932 62 SI WA NOT_NAMED 1931-12-21 00:00:00 NR -5.93998 101.287 main 236 236 __________P___ -1 -5.93998 101.287 7 3 188
1931355S06101 1932 62 SI WA NOT_NAMED 1931-12-21 03:00:00 NR -6.09748 101.258 main 252 252 __________P___ -1 -6.09748 101.258 7 2 183
1931355S06101 1932 62 SI WA NOT_NAMED 1931-12-21 06:00:00 NR -6.16000 101.260 main 260 260 _____O____O___ -1 -5.60000 101.500 99 9.90000 -6.30000 101.200 7 2 0
1931355S06101 1932 62 SI WA NOT_NAMED 1931-12-21 09:00:00 NR -6.26175 101.238 main 275 275 _____P____P___ -1 -5.67145 101.495 99 -6.55691 101.109 7 2 194
1931355S06101 1932 62 SI WA NOT_NAMED 1931-12-21 12:00:00 NR -6.38009 101.210 main 284 284 _____P____P___ -1 -5.74681 101.489 99 -6.85505 101.000 7 2 193
1931355S06101 1932 62 SI WA NOT_NAMED 1931-12-21 15:00:00 NR -6.50282 101.184 main 292 292 _____P____P___ -1 -5.82999 101.478 99 -7.17566 100.891 7 3 194
1931355S06101 1932 62 SI WA NOT_NAMED 1931-12-21 18:00:00 NR -6.71244 101.131 main 317 317 _____P____O___ -1 -5.92489 101.462 99 -7.50000 100.800 7 4 194
1931355S06101 1932 62 SI WA NOT_NAMED 1931-12-21 21:00:00 NR -6.91162 101.088 main 334 334 _____P____P___ -1 -6.03543 101.438 99 -7.78780 100.737 7 4 191
1931355S06101 1932 62 SI WA NOT_NAMED 1931-12-22 00:00:00 NR -7.12151 101.051 main 352 352 _____P____P___ -1 -6.16553 101.404 99 -8.07749 100.698 7 4 189
1931355S06101 1932 62 SI WA NOT_NAMED 1931-12-22 03:00:00 NR -7.34875 101.022 main 377 377 _____P____P___ -1 -6.31908 101.359 99 -8.37843 100.684 7 5 186
1931355S06101 1932 62 SI WA NOT_NAMED 1931-12-22 06:00:00 NR -7.60000 101.000 main 403 403 _____O____O___ -1 -6.50000 101.300 99 9.90000 -8.70000 100.700 7 5 185
1931355S06101 1932 62 SI WA NOT_NAMED 1931-12-22 09:00:00 NR -7.88628 100.978 main 430 430 _____P____P___ -1 -6.71102 101.227 99 -9.06154 100.730 7 6 183
1931355S06101 1932 62 SI WA NOT_NAMED 1931-12-22 12:00:00 NR -8.19631 100.967 main 458 458 _____P____P___ -1 -6.95017 101.144 99 -9.44246 100.790 7 6 0
1931355S06101 1932 62 SI WA NOT_NAMED 1931-12-22 15:00:00 NR -8.52072 100.969 main 486 486 _____P____P___ -1 -7.21429 101.059 99 -9.82716 100.880 7 7 0
1931355S06101 1932 62 SI WA NOT_NAMED 1931-12-22 18:00:00 NR -8.85012 100.988 main 519 519 _____P____O___ -1 -7.50025 100.976 99 -10.2000 101.000 7 7 177
1931355S06101 1932 62 SI WA NOT_NAMED 1931-12-22 21:00:00 NR -9.17206 101.006 main 535 535 _____P____P___ -1 -7.80492 100.903 99 -10.5392 101.110 7 7 175
1931355S06101 1932 62 SI WA NOT_NAMED 1931-12-23 00:00:00 NR -9.49493 101.049 main 552 543 _____P____P___ -1 -8.12517 100.845 99 -10.8647 101.253 7 7 169
1931355S06101 1932 62 SI WA NOT_NAMED 1931-12-23 03:00:00 NR -9.82037 101.126 main 562 560 _____P____P___ -1 -8.45790 100.808 99 -11.1828 101.444 7 7 163
1931355S06101 1932 62 SI WA NOT_NAMED 1931-12-23 06:00:00 NR -10.1500 101.250 main 566 566 _____O____O___ -1 -8.80000 100.800 99 9.90000 -11.5000 101.700 7 7 158
1931355S06101 1932 62 SI WA NOT_NAMED 1931-12-23 09:00:00 NR -10.4855 101.406 main 588 588 _____P____P___ -1 -9.14186 100.789 99 -11.8291 102.023 7 8 153
1931355S06101 1932 62 SI WA NOT_NAMED 1931-12-23 12:00:00 NR -10.8274 101.604 main 597 597 _____P____P___ -1 -9.49728 100.798 99 -12.1575 102.410 7 8 148
1931355S06101 1932 62 SI WA NOT_NAMED 1931-12-23 15:00:00 NR -11.1723 101.838 main 618 611 _____P____P___ -1 -9.86242 100.834 99 -12.4822 102.842 7 8 145
1931355S06101 1932 62 SI WA NOT_NAMED 1931-12-23 18:00:00 NR -11.5167 102.101 main 627 627 _____P____O___ -1 -10.2335 100.902 99 -12.8000 103.300 7 9 142
1931355S06101 1932 62 SI WA NOT_NAMED 1931-12-23 21:00:00 NR -11.8578 102.388 main 648 648 _____P____P___ -1 -10.6066 101.008 99 -13.1090 103.768 7 6 144
1931355S06101 1932 62 SI WA NOT_NAMED 1931-12-24 00:00:00 NR -12.0205 102.478 main 653 653 _____P____P___ -1 -10.9780 101.155 99 -13.4106 104.242 7 3 162
1931355S06101 1932 62 SI WA NOT_NAMED 1931-12-24 03:00:00 NR -12.1314 102.474 main 663 663 _____P____P___ -1 -11.3437 101.351 99 -13.7069 104.719 7 2 227
1931355S06101 1932 62 SI WA NOT_NAMED 1931-12-24 06:00:00 NR -12.1600 102.320 main 683 673 _____O____O___ -1 -11.7000 101.600 99 9.90000 -14.0000 105.200 7 5 277
1931355S06101 1932 62 SI WA NOT_NAMED 1931-12-24 09:00:00 NR -12.0727 101.958 main 689 689 _____P________ -1 -12.0727 101.958 99 7 3 168
1931355S06101 1932 62 SI WA NOT_NAMED 1931-12-24 12:00:00 NR -12.4420 102.378 main 698 698 _____P________ -1 -12.4420 102.378 99 7 11 130
1931355S06101 1932 62 SI WA NOT_NAMED 1931-12-24 15:00:00 NR -12.8007 102.842 main 721 716 _____P________ -1 -12.8007 102.842 99 7 12 127
1931355S06101 1932 62 SI WA NOT_NAMED 1931-12-24 18:00:00 NR -13.1420 103.329 main 723 723 _____P________ -1 -13.1420 103.329 99 12 125
1931355S06101 1932 62 SI WA NOT_NAMED 1931-12-24 21:00:00 NR -13.4592 103.819 main 740 731 _____P________ -1 -13.4592 103.819 99 11 123
1931355S06101 1932 62 SI WA NOT_NAMED 1931-12-25 00:00:00 NR -13.7455 104.291 main 742 742 _____P________ -1 -13.7455 104.291 99 10 121
1931355S06101 1932 62 SI WA NOT_NAMED 1931-12-25 03:00:00 NR -13.9945 104.725 main 762 759 _____P________ -1 -13.9945 104.725 99 9 120
1931355S06101 1932 62 SI WA NOT_NAMED 1931-12-25 06:00:00 NR -14.2000 105.100 main 774 772 _____O________ -1 -14.2000 105.100 99 9.90000 8 119
1931355S06101 1932 62 SI WA NOT_NAMED 1931-12-25 09:00:00 NR -14.3578 105.400 main 791 787 _____P________ -1 -14.3578 105.400 99 6 118
1931355S06101 1932 62 SI WA NOT_NAMED 1931-12-25 12:00:00 NR -14.4722 105.631 main 798 792 _____P________ -1 -14.4722 105.631 99 4 116
1931355S06101 1932 62 SI WA NOT_NAMED 1931-12-25 15:00:00 NR -14.5497 105.801 main 792 792 _____P________ -1 -14.5497 105.801 99 3 114
1931355S06101 1932 62 SI WA NOT_NAMED 1931-12-25 18:00:00 NR -14.5965 105.921 main 800 797 _____P________ -1 -14.5965 105.921 99 2 110
1931355S06101 1932 62 SI WA NOT_NAMED 1931-12-25 21:00:00 NR -14.6188 106.001 main 797 797 _____P________ -1 -14.6188 106.001 99 1 102
1931355S06101 1932 62 SI WA NOT_NAMED 1931-12-26 00:00:00 NR -14.6227 106.051 main 794 794 _____P________ -1 -14.6227 106.051 99 1 87
1931355S06101 1932 62 SI WA NOT_NAMED 1931-12-26 03:00:00 NR -14.6144 106.080 main 794 794 _____P________ -1 -14.6144 106.080 99 1 55
1931355S06101 1932 62 SI WA NOT_NAMED 1931-12-26 06:00:00 NR -14.6000 106.100 main 794 _____O________ -1 -14.6000 106.100 99 9.90000 0 0

About IBTrACS Database

This database is a web-friendly format of International Best Track Archive for Climate Stewardship (IBTrACS), a global best track data archive curated by NOAA dating back to 1842.

Updated: 2021-10-21